sensor_id;sensor_type;location;lat;lon;timestamp;P1;durP1;ratioP1;P2;durP2;ratioP2
5630;SDS011;2837;50.990;7.124;2024-03-17T06:00:17;159.65;;;9.45;;
5630;SDS011;2837;50.990;7.124;2024-03-17T06:02:43;160.25;;;9.80;;
5630;SDS011;2837;50.990;7.124;2024-03-17T06:05:09;160.90;;;9.00;;
5630;SDS011;2837;50.990;7.124;2024-03-17T06:07:37;161.18;;;9.73;;
5630;SDS011;2837;50.990;7.124;2024-03-17T06:10:03;159.40;;;8.93;;
5630;SDS011;2837;50.990;7.124;2024-03-17T06:12:29;160.07;;;10.03;;
5630;SDS011;2837;50.990;7.124;2024-03-17T06:14:55;160.73;;;9.30;;
5630;SDS011;2837;50.990;7.124;2024-03-17T06:17:21;160.35;;;9.32;;
5630;SDS011;2837;50.990;7.124;2024-03-17T06:19:47;162.45;;;9.75;;
5630;SDS011;2837;50.990;7.124;2024-03-17T06:22:13;160.48;;;9.50;;
5630;SDS011;2837;50.990;7.124;2024-03-17T06:24:39;160.15;;;9.35;;
5630;SDS011;2837;50.990;7.124;2024-03-17T06:27:04;160.17;;;9.60;;
5630;SDS011;2837;50.990;7.124;2024-03-17T06:29:32;160.40;;;9.43;;
5630;SDS011;2837;50.990;7.124;2024-03-17T06:31:58;159.75;;;9.27;;
5630;SDS011;2837;50.990;7.124;2024-03-17T06:34:25;159.98;;;9.20;;
5630;SDS011;2837;50.990;7.124;2024-03-17T06:36:50;159.20;;;10.00;;
5630;SDS011;2837;50.990;7.124;2024-03-17T06:39:16;159.80;;;9.60;;
5630;SDS011;2837;50.990;7.124;2024-03-17T06:41:44;161.38;;;9.88;;
5630;SDS011;2837;50.990;7.124;2024-03-17T06:44:10;160.82;;;9.85;;
5630;SDS011;2837;50.990;7.124;2024-03-17T06:46:36;159.05;;;9.15;;
5630;SDS011;2837;50.990;7.124;2024-03-17T06:49:02;160.13;;;9.75;;
5630;SDS011;2837;50.990;7.124;2024-03-17T06:51:28;160.60;;;9.98;;
5630;SDS011;2837;50.990;7.124;2024-03-17T06:53:54;159.60;;;9.48;;
5630;SDS011;2837;50.990;7.124;2024-03-17T06:56:20;159.00;;;9.60;;
5630;SDS011;2837;50.990;7.124;2024-03-17T06:58:45;159.03;;;9.67;;
5630;SDS011;2837;50.990;7.124;2024-03-17T07:01:11;158.77;;;9.33;;
5630;SDS011;2837;50.990;7.124;2024-03-17T07:03:37;159.17;;;9.43;;
5630;SDS011;2837;50.990;7.124;2024-03-17T07:06:03;158.50;;;9.40;;
5630;SDS011;2837;50.990;7.124;2024-03-17T07:08:30;160.20;;;9.30;;
5630;SDS011;2837;50.990;7.124;2024-03-17T07:10:57;158.70;;;9.30;;
5630;SDS011;2837;50.990;7.124;2024-03-17T07:13:23;158.00;;;9.18;;
5630;SDS011;2837;50.990;7.124;2024-03-17T07:15:49;158.50;;;8.37;;
5630;SDS011;2837;50.990;7.124;2024-03-17T07:18:15;159.10;;;8.90;;
5630;SDS011;2837;50.990;7.124;2024-03-17T07:20:41;159.30;;;8.80;;
5630;SDS011;2837;50.990;7.124;2024-03-17T07:23:07;159.75;;;8.93;;
5630;SDS011;2837;50.990;7.124;2024-03-17T07:25:33;160.13;;;9.77;;
5630;SDS011;2837;50.990;7.124;2024-03-17T07:27:59;158.40;;;9.40;;
5630;SDS011;2837;50.990;7.124;2024-03-17T07:30:24;159.20;;;9.33;;
5630;SDS011;2837;50.990;7.124;2024-03-17T07:32:50;157.85;;;9.10;;
5630;SDS011;2837;50.990;7.124;2024-03-17T07:35:16;159.80;;;9.20;;
5630;SDS011;2837;50.990;7.124;2024-03-17T07:37:42;157.20;;;8.55;;
5630;SDS011;2837;50.990;7.124;2024-03-17T07:40:08;161.65;;;9.13;;
5630;SDS011;2837;50.990;7.124;2024-03-17T07:42:37;158.63;;;9.07;;
5630;SDS011;2837;50.990;7.124;2024-03-17T07:45:03;158.32;;;9.30;;
5630;SDS011;2837;50.990;7.124;2024-03-17T07:47:29;157.90;;;9.20;;
5630;SDS011;2837;50.990;7.124;2024-03-17T07:50:01;157.47;;;8.93;;
5630;SDS011;2837;50.990;7.124;2024-03-17T07:52:30;157.85;;;9.15;;
5630;SDS011;2837;50.990;7.124;2024-03-17T07:54:56;158.45;;;9.63;;
5630;SDS011;2837;50.990;7.124;2024-03-17T07:57:22;158.43;;;9.70;;
5630;SDS011;2837;50.990;7.124;2024-03-17T07:59:50;157.60;;;9.30;;
5630;SDS011;2837;50.990;7.124;2024-03-17T08:02:17;157.43;;;9.43;;
5630;SDS011;2837;50.990;7.124;2024-03-17T08:04:43;157.10;;;9.17;;
5630;SDS011;2837;50.990;7.124;2024-03-17T08:07:12;158.93;;;9.10;;
5630;SDS011;2837;50.990;7.124;2024-03-17T08:09:37;157.27;;;8.80;;
5630;SDS011;2837;50.990;7.124;2024-03-17T08:12:03;157.20;;;9.25;;
5630;SDS011;2837;50.990;7.124;2024-03-17T08:14:30;157.25;;;9.25;;
5630;SDS011;2837;50.990;7.124;2024-03-17T08:16:56;157.10;;;9.10;;
5630;SDS011;2837;50.990;7.124;2024-03-17T08:19:21;158.37;;;8.93;;
5630;SDS011;2837;50.990;7.124;2024-03-17T08:21:47;157.70;;;9.00;;
5630;SDS011;2837;50.990;7.124;2024-03-17T08:24:14;157.85;;;9.32;;
5630;SDS011;2837;50.990;7.124;2024-03-17T08:26:40;157.23;;;8.80;;
5630;SDS011;2837;50.990;7.124;2024-03-17T08:29:06;156.30;;;8.50;;
5630;SDS011;2837;50.990;7.124;2024-03-17T08:31:32;156.60;;;9.10;;
5630;SDS011;2837;50.990;7.124;2024-03-17T08:33:58;156.90;;;9.50;;
5630;SDS011;2837;50.990;7.124;2024-03-17T08:36:24;157.10;;;9.20;;
5630;SDS011;2837;50.990;7.124;2024-03-17T08:38:51;157.38;;;9.15;;
5630;SDS011;2837;50.990;7.124;2024-03-17T08:41:17;156.90;;;8.10;;
5630;SDS011;2837;50.990;7.124;2024-03-17T08:43:43;157.00;;;9.70;;
5630;SDS011;2837;50.990;7.124;2024-03-17T08:46:09;157.65;;;9.20;;
5630;SDS011;2837;50.990;7.124;2024-03-17T08:48:37;157.65;;;9.13;;
5630;SDS011;2837;50.990;7.124;2024-03-17T08:51:04;156.60;;;9.27;;
5630;SDS011;2837;50.990;7.124;2024-03-17T08:53:30;156.60;;;9.57;;
5630;SDS011;2837;50.990;7.124;2024-03-17T08:55:56;157.20;;;9.57;;
5630;SDS011;2837;50.990;7.124;2024-03-17T08:58:23;157.80;;;10.20;;
5630;SDS011;2837;50.990;7.124;2024-03-17T09:00:49;158.77;;;10.00;;
5630;SDS011;2837;50.990;7.124;2024-03-17T09:03:16;157.90;;;10.13;;
5630;SDS011;2837;50.990;7.124;2024-03-17T09:05:43;157.57;;;10.02;;
5630;SDS011;2837;50.990;7.124;2024-03-17T09:08:15;157.25;;;10.05;;
5630;SDS011;2837;50.990;7.124;2024-03-17T09:10:45;155.57;;;8.70;;
5630;SDS011;2837;50.990;7.124;2024-03-17T09:13:21;157.48;;;9.43;;
5630;SDS011;2837;50.990;7.124;2024-03-17T09:15:55;158.20;;;10.20;;
5630;SDS011;2837;50.990;7.124;2024-03-17T09:18:23;157.43;;;10.07;;
5630;SDS011;2837;50.990;7.124;2024-03-17T09:23:28;157.32;;;10.15;;
5630;SDS011;2837;50.990;7.124;2024-03-17T09:25:55;156.17;;;9.60;;
5630;SDS011;2837;50.990;7.124;2024-03-17T09:28:21;156.48;;;9.63;;
5630;SDS011;2837;50.990;7.124;2024-03-17T09:30:48;155.55;;;9.52;;
5630;SDS011;2837;50.990;7.124;2024-03-17T09:33:14;158.02;;;10.60;;
5630;SDS011;2837;50.990;7.124;2024-03-17T09:35:40;157.45;;;10.50;;
5630;SDS011;2837;50.990;7.124;2024-03-17T09:38:06;156.82;;;10.00;;
5630;SDS011;2837;50.990;7.124;2024-03-17T09:40:32;155.88;;;9.70;;
5630;SDS011;2837;50.990;7.124;2024-03-17T09:42:57;157.60;;;9.88;;
5630;SDS011;2837;50.990;7.124;2024-03-17T09:45:24;156.57;;;9.25;;
5630;SDS011;2837;50.990;7.124;2024-03-17T09:47:50;155.80;;;9.10;;
5630;SDS011;2837;50.990;7.124;2024-03-17T09:50:16;156.30;;;9.70;;
5630;SDS011;2837;50.990;7.124;2024-03-17T09:52:44;156.10;;;9.55;;
5630;SDS011;2837;50.990;7.124;2024-03-17T09:55:15;155.27;;;9.10;;
5630;SDS011;2837;50.990;7.124;2024-03-17T09:57:42;156.80;;;9.80;;
5630;SDS011;2837;50.990;7.124;2024-03-17T10:00:09;156.02;;;9.80;;
5630;SDS011;2837;50.990;7.124;2024-03-17T10:02:45;156.57;;;10.07;;
5630;SDS011;2837;50.990;7.124;2024-03-17T10:05:18;157.70;;;10.25;;
5630;SDS011;2837;50.990;7.124;2024-03-17T10:07:45;155.15;;;8.63;;
5630;SDS011;2837;50.990;7.124;2024-03-17T10:10:11;157.10;;;9.80;;
5630;SDS011;2837;50.990;7.124;2024-03-17T10:12:41;155.80;;;8.50;;
5630;SDS011;2837;50.990;7.124;2024-03-17T10:15:07;155.73;;;9.57;;
5630;SDS011;2837;50.990;7.124;2024-03-17T10:17:36;156.10;;;9.80;;
5630;SDS011;2837;50.990;7.124;2024-03-17T10:25:29;154.75;;;8.60;;
5630;SDS011;2837;50.990;7.124;2024-03-17T10:27:55;155.90;;;9.70;;
5630;SDS011;2837;50.990;7.124;2024-03-17T10:30:24;155.90;;;8.50;;
5630;SDS011;2837;50.990;7.124;2024-03-17T10:32:52;155.07;;;9.25;;
5630;SDS011;2837;50.990;7.124;2024-03-17T10:37:56;156.93;;;8.30;;
5630;SDS011;2837;50.990;7.124;2024-03-17T10:40:23;154.77;;;8.80;;
5630;SDS011;2837;50.990;7.124;2024-03-17T10:42:50;154.90;;;9.55;;
5630;SDS011;2837;50.990;7.124;2024-03-17T10:45:16;155.90;;;9.40;;
5630;SDS011;2837;50.990;7.124;2024-03-17T10:47:47;154.63;;;8.90;;
5630;SDS011;2837;50.990;7.124;2024-03-17T10:50:18;154.32;;;8.80;;
5630;SDS011;2837;50.990;7.124;2024-03-17T10:52:46;156.15;;;9.80;;
5630;SDS011;2837;50.990;7.124;2024-03-17T10:55:19;153.95;;;8.75;;
5630;SDS011;2837;50.990;7.124;2024-03-17T10:57:46;154.85;;;9.25;;
5630;SDS011;2837;50.990;7.124;2024-03-17T11:00:13;154.60;;;9.40;;
5630;SDS011;2837;50.990;7.124;2024-03-17T11:02:42;154.57;;;8.55;;
5630;SDS011;2837;50.990;7.124;2024-03-17T11:05:11;154.30;;;9.40;;
5630;SDS011;2837;50.990;7.124;2024-03-17T11:07:56;154.90;;;9.43;;
5630;SDS011;2837;50.990;7.124;2024-03-17T11:10:35;154.73;;;9.73;;
5630;SDS011;2837;50.990;7.124;2024-03-17T11:13:03;156.50;;;10.18;;
5630;SDS011;2837;50.990;7.124;2024-03-17T11:23:27;155.50;;;9.18;;
5630;SDS011;2837;50.990;7.124;2024-03-17T11:25:54;153.82;;;9.32;;
5630;SDS011;2837;50.990;7.124;2024-03-17T11:28:44;154.95;;;9.88;;
5630;SDS011;2837;50.990;7.124;2024-03-17T11:34:05;154.00;;;9.80;;
5630;SDS011;2837;50.990;7.124;2024-03-17T11:36:38;155.77;;;10.50;;
5630;SDS011;2837;50.990;7.124;2024-03-17T11:39:06;154.85;;;10.63;;
5630;SDS011;2837;50.990;7.124;2024-03-17T11:46:41;155.55;;;11.68;;
5630;SDS011;2837;50.990;7.124;2024-03-17T11:49:16;155.95;;;12.35;;
5630;SDS011;2837;50.990;7.124;2024-03-17T11:51:44;156.05;;;12.00;;
5630;SDS011;2837;50.990;7.124;2024-03-17T11:54:15;155.90;;;11.95;;
5630;SDS011;2837;50.990;7.124;2024-03-17T11:56:44;155.80;;;11.77;;
5630;SDS011;2837;50.990;7.124;2024-03-17T11:59:10;157.00;;;12.80;;
5630;SDS011;2837;50.990;7.124;2024-03-17T12:01:36;155.48;;;11.27;;
5630;SDS011;2837;50.990;7.124;2024-03-17T12:04:04;155.50;;;11.73;;
5630;SDS011;2837;50.990;7.124;2024-03-17T12:06:31;157.73;;;13.03;;
5630;SDS011;2837;50.990;7.124;2024-03-17T12:11:43;156.37;;;12.20;;
5630;SDS011;2837;50.990;7.124;2024-03-17T12:14:27;156.23;;;12.80;;
5630;SDS011;2837;50.990;7.124;2024-03-17T12:19:20;156.07;;;12.00;;
5630;SDS011;2837;50.990;7.124;2024-03-17T12:21:50;154.00;;;9.60;;
5630;SDS011;2837;50.990;7.124;2024-03-17T12:24:20;156.10;;;12.40;;
5630;SDS011;2837;50.990;7.124;2024-03-17T12:26:46;155.25;;;11.07;;
5630;SDS011;2837;50.990;7.124;2024-03-17T12:29:22;155.63;;;12.20;;
5630;SDS011;2837;50.990;7.124;2024-03-17T12:32:01;155.10;;;10.07;;
5630;SDS011;2837;50.990;7.124;2024-03-17T12:34:27;155.40;;;11.25;;
5630;SDS011;2837;50.990;7.124;2024-03-17T12:36:55;156.00;;;11.50;;
5630;SDS011;2837;50.990;7.124;2024-03-17T12:39:23;155.10;;;11.50;;
5630;SDS011;2837;50.990;7.124;2024-03-17T12:47:18;156.13;;;11.93;;
5630;SDS011;2837;50.990;7.124;2024-03-17T12:49:48;156.63;;;10.85;;
5630;SDS011;2837;50.990;7.124;2024-03-17T12:52:25;154.95;;;10.88;;
5630;SDS011;2837;50.990;7.124;2024-03-17T12:57:49;155.10;;;10.70;;
5630;SDS011;2837;50.990;7.124;2024-03-17T13:03:24;156.02;;;12.43;;
5630;SDS011;2837;50.990;7.124;2024-03-17T13:05:51;154.00;;;9.68;;
5630;SDS011;2837;50.990;7.124;2024-03-17T13:08:17;157.00;;;12.40;;
5630;SDS011;2837;50.990;7.124;2024-03-17T13:10:43;156.05;;;11.35;;
5630;SDS011;2837;50.990;7.124;2024-03-17T13:13:09;155.57;;;11.32;;
5630;SDS011;2837;50.990;7.124;2024-03-17T13:15:35;155.50;;;11.90;;
5630;SDS011;2837;50.990;7.124;2024-03-17T13:18:04;158.80;;;14.50;;
5630;SDS011;2837;50.990;7.124;2024-03-17T13:20:30;156.20;;;12.70;;
5630;SDS011;2837;50.990;7.124;2024-03-17T13:22:57;157.80;;;14.98;;
5630;SDS011;2837;50.990;7.124;2024-03-17T13:25:25;159.25;;;15.00;;
5630;SDS011;2837;50.990;7.124;2024-03-17T13:27:52;159.75;;;15.55;;
5630;SDS011;2837;50.990;7.124;2024-03-17T13:30:19;156.13;;;12.73;;
5630;SDS011;2837;50.990;7.124;2024-03-17T13:32:48;160.32;;;16.33;;
5630;SDS011;2837;50.990;7.124;2024-03-17T13:35:17;159.25;;;16.33;;
5630;SDS011;2837;50.990;7.124;2024-03-17T13:37:48;158.70;;;15.80;;
5630;SDS011;2837;50.990;7.124;2024-03-17T13:40:15;160.65;;;17.02;;
5630;SDS011;2837;50.990;7.124;2024-03-17T13:42:43;160.05;;;15.98;;
5630;SDS011;2837;50.990;7.124;2024-03-17T13:45:15;157.55;;;15.52;;
5630;SDS011;2837;50.990;7.124;2024-03-17T13:47:41;159.38;;;16.95;;
5630;SDS011;2837;50.990;7.124;2024-03-17T13:50:08;159.55;;;16.65;;
5630;SDS011;2837;50.990;7.124;2024-03-17T13:52:40;158.80;;;16.20;;
5630;SDS011;2837;50.990;7.124;2024-03-17T13:55:12;157.70;;;14.40;;
5630;SDS011;2837;50.990;7.124;2024-03-17T13:57:39;159.27;;;15.77;;
5630;SDS011;2837;50.990;7.124;2024-03-17T14:00:05;159.10;;;16.40;;
5630;SDS011;2837;50.990;7.124;2024-03-17T14:02:32;158.38;;;15.73;;
5630;SDS011;2837;50.990;7.124;2024-03-17T14:04:58;159.60;;;17.30;;
5630;SDS011;2837;50.990;7.124;2024-03-17T14:07:24;157.93;;;15.43;;
5630;SDS011;2837;50.990;7.124;2024-03-17T14:09:51;159.88;;;16.65;;
5630;SDS011;2837;50.990;7.124;2024-03-17T14:12:16;158.18;;;14.65;;
5630;SDS011;2837;50.990;7.124;2024-03-17T14:14:42;159.75;;;15.90;;
5630;SDS011;2837;50.990;7.124;2024-03-17T14:17:08;159.10;;;17.10;;
5630;SDS011;2837;50.990;7.124;2024-03-17T14:19:34;158.57;;;15.40;;
5630;SDS011;2837;50.990;7.124;2024-03-17T14:22:00;158.93;;;16.73;;
5630;SDS011;2837;50.990;7.124;2024-03-17T14:24:26;158.53;;;15.90;;
5630;SDS011;2837;50.990;7.124;2024-03-17T14:26:53;159.10;;;16.40;;
5630;SDS011;2837;50.990;7.124;2024-03-17T14:29:19;161.27;;;16.00;;
5630;SDS011;2837;50.990;7.124;2024-03-17T14:31:45;158.30;;;13.43;;
5630;SDS011;2837;50.990;7.124;2024-03-17T14:34:11;159.80;;;16.58;;
5630;SDS011;2837;50.990;7.124;2024-03-17T14:36:37;161.07;;;17.58;;
5630;SDS011;2837;50.990;7.124;2024-03-17T14:39:03;159.10;;;16.23;;
5630;SDS011;2837;50.990;7.124;2024-03-17T14:41:30;158.55;;;15.75;;
5630;SDS011;2837;50.990;7.124;2024-03-17T14:43:56;159.13;;;16.17;;
5630;SDS011;2837;50.990;7.124;2024-03-17T14:46:22;157.95;;;14.82;;
5630;SDS011;2837;50.990;7.124;2024-03-17T14:48:52;158.52;;;16.13;;
5630;SDS011;2837;50.990;7.124;2024-03-17T14:51:18;157.48;;;14.77;;
5630;SDS011;2837;50.990;7.124;2024-03-17T14:53:46;157.98;;;15.70;;
5630;SDS011;2837;50.990;7.124;2024-03-17T14:56:17;162.33;;;16.63;;
5630;SDS011;2837;50.990;7.124;2024-03-17T14:58:44;161.75;;;18.23;;
5630;SDS011;2837;50.990;7.124;2024-03-17T15:01:11;160.48;;;16.13;;
5630;SDS011;2837;50.990;7.124;2024-03-17T15:03:37;160.20;;;15.93;;
5630;SDS011;2837;50.990;7.124;2024-03-17T15:06:04;159.00;;;14.88;;
5630;SDS011;2837;50.990;7.124;2024-03-17T15:08:34;159.43;;;15.35;;
5630;SDS011;2837;50.990;7.124;2024-03-17T15:11:00;157.90;;;14.52;;
5630;SDS011;2837;50.990;7.124;2024-03-17T15:13:26;158.90;;;15.00;;
5630;SDS011;2837;50.990;7.124;2024-03-17T15:15:52;159.00;;;16.02;;
5630;SDS011;2837;50.990;7.124;2024-03-17T15:18:20;158.10;;;14.63;;
5630;SDS011;2837;50.990;7.124;2024-03-17T15:20:52;160.38;;;15.38;;
5630;SDS011;2837;50.990;7.124;2024-03-17T15:23:19;157.80;;;14.40;;
5630;SDS011;2837;50.990;7.124;2024-03-17T15:25:45;159.50;;;14.00;;
5630;SDS011;2837;50.990;7.124;2024-03-17T15:28:11;159.27;;;14.50;;
5630;SDS011;2837;50.990;7.124;2024-03-17T15:30:37;158.00;;;13.57;;
5630;SDS011;2837;50.990;7.124;2024-03-17T15:33:03;159.68;;;14.63;;
5630;SDS011;2837;50.990;7.124;2024-03-17T15:35:29;157.40;;;13.65;;
5630;SDS011;2837;50.990;7.124;2024-03-17T15:37:56;157.00;;;12.90;;
5630;SDS011;2837;50.990;7.124;2024-03-17T15:40:22;157.00;;;12.65;;
5630;SDS011;2837;50.990;7.124;2024-03-17T15:42:49;158.43;;;14.40;;
5630;SDS011;2837;50.990;7.124;2024-03-17T15:45:15;156.68;;;12.75;;
5630;SDS011;2837;50.990;7.124;2024-03-17T15:47:45;159.05;;;14.27;;
5630;SDS011;2837;50.990;7.124;2024-03-17T15:50:11;156.93;;;12.95;;
5630;SDS011;2837;50.990;7.124;2024-03-17T15:52:38;158.75;;;14.45;;
5630;SDS011;2837;50.990;7.124;2024-03-17T15:55:07;158.20;;;14.00;;
5630;SDS011;2837;50.990;7.124;2024-03-17T15:57:33;158.35;;;14.23;;
5630;SDS011;2837;50.990;7.124;2024-03-17T15:59:59;157.77;;;13.13;;
5630;SDS011;2837;50.990;7.124;2024-03-17T16:02:27;156.70;;;11.30;;
5630;SDS011;2837;50.990;7.124;2024-03-17T16:04:53;157.60;;;13.20;;
5630;SDS011;2837;50.990;7.124;2024-03-17T16:07:20;159.55;;;14.27;;
5630;SDS011;2837;50.990;7.124;2024-03-17T16:09:46;157.30;;;13.27;;
5630;SDS011;2837;50.990;7.124;2024-03-17T16:12:15;157.07;;;12.68;;
5630;SDS011;2837;50.990;7.124;2024-03-17T16:14:42;157.68;;;14.60;;
5630;SDS011;2837;50.990;7.124;2024-03-17T16:17:11;161.60;;;14.77;;
5630;SDS011;2837;50.990;7.124;2024-03-17T16:19:38;158.02;;;14.55;;
5630;SDS011;2837;50.990;7.124;2024-03-17T16:22:05;158.93;;;14.23;;
5630;SDS011;2837;50.990;7.124;2024-03-17T16:24:33;160.13;;;14.83;;
5630;SDS011;2837;50.990;7.124;2024-03-17T16:27:00;158.82;;;14.48;;
5630;SDS011;2837;50.990;7.124;2024-03-17T16:29:26;159.05;;;15.05;;
5630;SDS011;2837;50.990;7.124;2024-03-17T16:31:52;158.38;;;14.88;;
5630;SDS011;2837;50.990;7.124;2024-03-17T16:34:18;158.00;;;14.65;;
5630;SDS011;2837;50.990;7.124;2024-03-17T16:36:45;159.60;;;14.93;;
5630;SDS011;2837;50.990;7.124;2024-03-17T16:39:13;157.23;;;13.25;;
5630;SDS011;2837;50.990;7.124;2024-03-17T16:41:39;158.90;;;15.38;;
5630;SDS011;2837;50.990;7.124;2024-03-17T16:44:07;159.03;;;15.83;;
5630;SDS011;2837;50.990;7.124;2024-03-17T16:49:18;158.85;;;16.02;;
5630;SDS011;2837;50.990;7.124;2024-03-17T16:51:44;159.95;;;15.85;;
5630;SDS011;2837;50.990;7.124;2024-03-17T16:54:10;158.93;;;14.32;;
5630;SDS011;2837;50.990;7.124;2024-03-17T16:56:37;159.63;;;16.13;;
5630;SDS011;2837;50.990;7.124;2024-03-17T16:59:03;159.80;;;16.87;;
5630;SDS011;2837;50.990;7.124;2024-03-17T17:01:30;162.17;;;19.33;;
5630;SDS011;2837;50.990;7.124;2024-03-17T17:03:56;159.90;;;15.23;;
5630;SDS011;2837;50.990;7.124;2024-03-17T17:06:22;159.43;;;15.30;;
5630;SDS011;2837;50.990;7.124;2024-03-17T17:08:48;159.27;;;16.55;;
5630;SDS011;2837;50.990;7.124;2024-03-17T17:11:15;161.45;;;16.13;;
5630;SDS011;2837;50.990;7.124;2024-03-17T17:13:44;158.73;;;15.48;;
5630;SDS011;2837;50.990;7.124;2024-03-17T17:16:13;158.32;;;14.80;;
5630;SDS011;2837;50.990;7.124;2024-03-17T17:18:52;159.25;;;15.23;;
5630;SDS011;2837;50.990;7.124;2024-03-17T17:21:20;160.07;;;14.20;;
5630;SDS011;2837;50.990;7.124;2024-03-17T17:23:46;158.82;;;13.80;;
5630;SDS011;2837;50.990;7.124;2024-03-17T17:26:16;158.10;;;13.90;;
5630;SDS011;2837;50.990;7.124;2024-03-17T17:28:42;157.77;;;12.00;;
5630;SDS011;2837;50.990;7.124;2024-03-17T17:31:09;158.23;;;14.52;;
5630;SDS011;2837;50.990;7.124;2024-03-17T17:33:36;159.25;;;13.65;;
5630;SDS011;2837;50.990;7.124;2024-03-17T17:36:08;158.40;;;13.50;;
5630;SDS011;2837;50.990;7.124;2024-03-17T17:38:37;160.07;;;12.25;;
5630;SDS011;2837;50.990;7.124;2024-03-17T17:41:04;158.60;;;13.60;;
5630;SDS011;2837;50.990;7.124;2024-03-17T17:43:37;158.63;;;13.35;;
5630;SDS011;2837;50.990;7.124;2024-03-17T17:46:08;157.48;;;12.85;;
5630;SDS011;2837;50.990;7.124;2024-03-17T17:48:35;156.53;;;11.13;;
5630;SDS011;2837;50.990;7.124;2024-03-17T17:51:05;157.60;;;13.52;;
5630;SDS011;2837;50.990;7.124;2024-03-17T17:53:31;156.13;;;12.15;;
5630;SDS011;2837;50.990;7.124;2024-03-17T17:55:57;156.43;;;10.85;;
5630;SDS011;2837;50.990;7.124;2024-03-17T17:58:23;156.55;;;11.98;;
5630;SDS011;2837;50.990;7.124;2024-03-17T18:00:57;155.33;;;10.93;;
5630;SDS011;2837;50.990;7.124;2024-03-17T18:03:26;156.65;;;11.60;;
5630;SDS011;2837;50.990;7.124;2024-03-17T18:05:52;156.25;;;10.85;;
5630;SDS011;2837;50.990;7.124;2024-03-17T18:08:22;157.10;;;11.93;;
5630;SDS011;2837;50.990;7.124;2024-03-17T18:10:48;155.57;;;10.55;;
5630;SDS011;2837;50.990;7.124;2024-03-17T18:13:15;155.30;;;10.00;;
5630;SDS011;2837;50.990;7.124;2024-03-17T18:15:41;156.15;;;11.13;;
5630;SDS011;2837;50.990;7.124;2024-03-17T18:18:07;155.38;;;10.68;;
5630;SDS011;2837;50.990;7.124;2024-03-17T18:20:33;155.45;;;10.55;;
5630;SDS011;2837;50.990;7.124;2024-03-17T18:22:58;155.40;;;9.53;;
5630;SDS011;2837;50.990;7.124;2024-03-17T18:25:34;156.10;;;10.98;;
5630;SDS011;2837;50.990;7.124;2024-03-17T18:28:00;158.80;;;11.70;;
5630;SDS011;2837;50.990;7.124;2024-03-17T18:30:27;159.43;;;11.90;;
5630;SDS011;2837;50.990;7.124;2024-03-17T18:32:55;158.95;;;11.73;;
5630;SDS011;2837;50.990;7.124;2024-03-17T18:35:25;158.60;;;11.70;;
5630;SDS011;2837;50.990;7.124;2024-03-17T18:37:53;157.03;;;10.90;;
5630;SDS011;2837;50.990;7.124;2024-03-17T18:40:19;160.85;;;13.75;;
5630;SDS011;2837;50.990;7.124;2024-03-17T18:42:45;158.75;;;12.70;;
5630;SDS011;2837;50.990;7.124;2024-03-17T18:45:14;164.50;;;14.93;;
5630;SDS011;2837;50.990;7.124;2024-03-17T18:47:40;159.63;;;11.35;;
5630;SDS011;2837;50.990;7.124;2024-03-17T18:50:06;158.65;;;11.90;;
5630;SDS011;2837;50.990;7.124;2024-03-17T18:52:33;156.90;;;11.32;;
5630;SDS011;2837;50.990;7.124;2024-03-17T18:54:59;155.82;;;11.07;;
5630;SDS011;2837;50.990;7.124;2024-03-17T18:57:25;158.55;;;11.27;;
5630;SDS011;2837;50.990;7.124;2024-03-17T18:59:51;155.30;;;9.70;;
5630;SDS011;2837;50.990;7.124;2024-03-17T19:02:17;156.50;;;10.40;;
5630;SDS011;2837;50.990;7.124;2024-03-17T19:04:44;157.80;;;10.70;;
5630;SDS011;2837;50.990;7.124;2024-03-17T19:07:10;156.98;;;10.07;;
5630;SDS011;2837;50.990;7.124;2024-03-17T19:09:36;156.90;;;9.73;;
5630;SDS011;2837;50.990;7.124;2024-03-17T19:12:02;157.88;;;10.95;;
5630;SDS011;2837;50.990;7.124;2024-03-17T19:14:28;155.73;;;10.68;;
5630;SDS011;2837;50.990;7.124;2024-03-17T19:16:54;156.20;;;10.63;;
5630;SDS011;2837;50.990;7.124;2024-03-17T19:19:20;156.23;;;10.77;;
5630;SDS011;2837;50.990;7.124;2024-03-17T19:21:47;156.37;;;10.63;;
5630;SDS011;2837;50.990;7.124;2024-03-17T19:24:17;156.57;;;10.70;;
5630;SDS011;2837;50.990;7.124;2024-03-17T19:26:43;157.73;;;11.02;;
5630;SDS011;2837;50.990;7.124;2024-03-17T19:29:09;158.15;;;10.52;;
5630;SDS011;2837;50.990;7.124;2024-03-17T19:31:34;157.27;;;11.60;;
5630;SDS011;2837;50.990;7.124;2024-03-17T19:34:01;157.68;;;10.52;;
5630;SDS011;2837;50.990;7.124;2024-03-17T19:36:29;154.98;;;9.50;;
5630;SDS011;2837;50.990;7.124;2024-03-17T19:38:55;156.63;;;10.05;;
5630;SDS011;2837;50.990;7.124;2024-03-17T19:41:21;157.77;;;10.90;;
5630;SDS011;2837;50.990;7.124;2024-03-17T19:43:47;156.52;;;11.00;;
5630;SDS011;2837;50.990;7.124;2024-03-17T19:46:15;156.13;;;10.15;;
5630;SDS011;2837;50.990;7.124;2024-03-17T19:48:46;157.05;;;10.80;;
5630;SDS011;2837;50.990;7.124;2024-03-17T19:51:15;157.65;;;11.00;;
5630;SDS011;2837;50.990;7.124;2024-03-17T19:53:42;156.55;;;10.65;;
5630;SDS011;2837;50.990;7.124;2024-03-17T19:56:09;156.70;;;9.32;;
5630;SDS011;2837;50.990;7.124;2024-03-17T19:58:36;156.75;;;10.90;;
5630;SDS011;2837;50.990;7.124;2024-03-17T20:01:02;157.15;;;10.00;;
5630;SDS011;2837;50.990;7.124;2024-03-17T20:03:29;156.48;;;10.52;;
5630;SDS011;2837;50.990;7.124;2024-03-17T20:05:59;156.68;;;10.48;;
5630;SDS011;2837;50.990;7.124;2024-03-17T20:08:25;155.80;;;9.50;;
5630;SDS011;2837;50.990;7.124;2024-03-17T20:10:54;156.15;;;10.20;;
5630;SDS011;2837;50.990;7.124;2024-03-17T20:13:21;156.52;;;10.27;;
5630;SDS011;2837;50.990;7.124;2024-03-17T20:15:47;157.20;;;10.43;;
5630;SDS011;2837;50.990;7.124;2024-03-17T20:18:17;157.37;;;10.27;;
5630;SDS011;2837;50.990;7.124;2024-03-17T20:20:42;157.30;;;10.47;;
5630;SDS011;2837;50.990;7.124;2024-03-17T20:23:08;157.52;;;10.68;;
5630;SDS011;2837;50.990;7.124;2024-03-17T20:25:34;156.50;;;10.40;;
5630;SDS011;2837;50.990;7.124;2024-03-17T20:28:01;156.20;;;10.02;;
5630;SDS011;2837;50.990;7.124;2024-03-17T20:30:27;155.90;;;9.13;;
5630;SDS011;2837;50.990;7.124;2024-03-17T20:32:53;156.88;;;9.77;;
5630;SDS011;2837;50.990;7.124;2024-03-17T20:35:19;156.38;;;10.20;;
5630;SDS011;2837;50.990;7.124;2024-03-17T20:37:45;156.63;;;10.25;;
5630;SDS011;2837;50.990;7.124;2024-03-17T20:40:12;156.55;;;9.27;;
5630;SDS011;2837;50.990;7.124;2024-03-17T20:42:39;155.85;;;9.40;;
5630;SDS011;2837;50.990;7.124;2024-03-17T20:45:06;157.38;;;9.95;;
5630;SDS011;2837;50.990;7.124;2024-03-17T20:47:33;156.85;;;9.85;;
5630;SDS011;2837;50.990;7.124;2024-03-17T20:49:59;156.60;;;9.68;;
5630;SDS011;2837;50.990;7.124;2024-03-17T20:52:25;158.10;;;10.57;;
5630;SDS011;2837;50.990;7.124;2024-03-17T20:54:52;156.33;;;9.93;;
5630;SDS011;2837;50.990;7.124;2024-03-17T20:57:18;155.30;;;9.20;;
5630;SDS011;2837;50.990;7.124;2024-03-17T20:59:44;155.93;;;9.32;;
5630;SDS011;2837;50.990;7.124;2024-03-17T21:02:10;157.37;;;10.20;;
5630;SDS011;2837;50.990;7.124;2024-03-17T21:04:36;156.88;;;9.88;;
5630;SDS011;2837;50.990;7.124;2024-03-17T21:07:02;157.65;;;10.15;;
5630;SDS011;2837;50.990;7.124;2024-03-17T21:09:28;158.55;;;9.38;;
5630;SDS011;2837;50.990;7.124;2024-03-17T21:11:54;157.50;;;9.98;;
5630;SDS011;2837;50.990;7.124;2024-03-17T21:14:23;160.45;;;10.88;;
5630;SDS011;2837;50.990;7.124;2024-03-17T21:16:49;157.50;;;11.00;;
5630;SDS011;2837;50.990;7.124;2024-03-17T21:19:15;156.05;;;9.38;;
5630;SDS011;2837;50.990;7.124;2024-03-17T21:21:42;156.27;;;9.95;;
5630;SDS011;2837;50.990;7.124;2024-03-17T21:24:08;157.73;;;10.00;;